Time;durP1;ratioP1;P1;durP2;ratioP2;P2;SDS_P1;SDS_P2;PMS_P1;PMS_P2;Temp;Humidity;BMP_temperature;BMP_pressure;BME280_temperature;BME280_humidity;BME280_pressure;Samples;Min_cycle;Max_cycle;Signal;HPM_P1;HPM_P2
2023/05/08 00:00:33;;;;;;;7.65;6.22;;;11.60;78.40;;;;;;5055465;28;20029;-46
2023/05/08 00:03:02;;;;;;;8.90;6.15;;;11.60;78.40;;;;;;5037962;28;20037;-47
2023/05/08 00:05:29;;;;;;;6.15;5.55;;;11.50;78.20;;;;;;5057683;28;20025;-48
2023/05/08 00:08:01;;;;;;;7.30;6.35;;;11.50;78.40;;;;;;5057760;28;20033;-46
2023/05/08 00:10:30;;;;;;;6.30;5.32;;;11.40;78.70;;;;;;5075599;28;20127;-46
2023/05/08 00:12:56;;;;;;;6.68;5.63;;;11.50;78.50;;;;;;5064359;28;20029;-47
2023/05/08 00:15:22;;;;;;;6.18;5.57;;;11.40;78.50;;;;;;5038208;28;20035;-48
2023/05/08 00:17:49;;;;;;;8.18;5.32;;;11.40;78.30;;;;;;5055341;28;20040;-49
2023/05/08 00:20:16;;;;;;;6.32;5.65;;;11.40;78.20;;;;;;5038093;28;20029;-47
2023/05/08 00:22:43;;;;;;;6.63;5.03;;;11.40;78.20;;;;;;5037708;28;20689;-47
2023/05/08 00:25:09;;;;;;;6.13;5.00;;;11.40;78.10;;;;;;5055528;28;20465;-47
2023/05/08 00:27:35;;;;;;;6.50;5.72;;;11.40;78.20;;;;;;5055059;28;20037;-47
2023/05/08 00:30:02;;;;;;;9.20;5.57;;;11.40;78.30;;;;;;5055181;28;20083;-49
2023/05/08 00:32:29;;;;;;;6.82;5.22;;;11.30;78.30;;;;;;5055436;28;20040;-47
2023/05/08 00:34:56;;;;;;;6.82;5.60;;;11.30;78.40;;;;;;5037578;28;20025;-47
2023/05/08 00:37:23;;;;;;;7.22;5.63;;;11.30;78.40;;;;;;5056930;28;20044;-47
2023/05/08 00:39:52;;;;;;;7.38;5.57;;;11.40;78.80;;;;;;5057623;28;20016;-47
2023/05/08 00:42:17;;;;;;;6.20;5.50;;;11.30;79.30;;;;;;5070729;28;20446;-46
2023/05/08 00:44:46;;;;;;;6.82;5.32;;;11.20;79.00;;;;;;5055313;28;20059;-47
2023/05/08 00:47:13;;;;;;;6.47;5.20;;;11.20;79.20;;;;;;5054795;28;20048;-47
2023/05/08 00:49:40;;;;;;;6.25;5.65;;;11.20;79.20;;;;;;5054866;28;20044;-47
2023/05/08 00:52:07;;;;;;;6.78;5.95;;;11.20;79.20;;;;;;5054940;28;20017;-46
2023/05/08 00:54:36;;;;;;;6.95;5.57;;;11.20;79.50;;;;;;5053860;28;20454;-46
2023/05/08 00:57:06;;;;;;;7.10;6.13;;;11.20;79.50;;;;;;5054660;28;20032;-49
2023/05/08 00:59:33;;;;;;;7.00;6.30;;;11.10;79.30;;;;;;5054655;28;20029;-49
2023/05/08 01:02:01;;;;;;;8.57;6.28;;;11.10;79.50;;;;;;5061342;28;20365;-47
2023/05/08 01:04:27;;;;;;;7.63;6.30;;;11.10;79.40;;;;;;5074674;28;20481;-48
2023/05/08 01:06:53;;;;;;;7.13;6.25;;;11.10;79.70;;;;;;5074524;28;20442;-46
2023/05/08 01:09:22;;;;;;;6.65;5.93;;;11.10;79.80;;;;;;5073949;28;20060;-47
2023/05/08 01:12:12;;;;;;;6.70;6.00;;;11.00;79.80;;;;;;5066333;28;20037;-47
2023/05/08 01:15:03;;;;;;;6.10;5.45;;;11.00;79.70;;;;;;5054525;28;20112;-47
2023/05/08 01:17:37;;;;;;;6.63;5.93;;;10.90;79.80;;;;;;5053650;28;20037;-46
2023/05/08 01:20:45;;;;;;;12.70;6.70;;;10.90;80.00;;;;;;5054223;28;20032;-46
2023/05/08 01:23:42;;;;;;;7.25;6.47;;;10.90;80.10;;;;;;5054273;28;20048;-50
2023/05/08 01:26:35;;;;;;;7.18;5.78;;;10.90;80.00;;;;;;5044546;28;20037;-48
2023/05/08 01:29:55;;;;;;;8.57;6.35;;;10.90;79.90;;;;;;5054172;28;20040;-46
2023/05/08 01:32:33;;;;;;;7.53;6.72;;;10.90;79.60;;;;;;5012648;28;20460;-46
2023/05/08 01:35:37;;;;;;;7.78;6.97;;;10.90;79.80;;;;;;5049106;28;20048;-47
2023/05/08 01:38:39;;;;;;;7.60;6.20;;;10.90;79.80;;;;;;5053482;28;20040;-48
2023/05/08 01:41:29;;;;;;;7.25;5.53;;;10.80;79.90;;;;;;5036410;28;20450;-47
2023/05/08 01:44:15;;;;;;;7.13;6.43;;;10.80;80.20;;;;;;5053159;28;20060;-48
2023/05/08 01:46:48;;;;;;;7.53;6.70;;;10.80;80.10;;;;;;5036043;28;20036;-47
2023/05/08 01:49:40;;;;;;;6.30;5.70;;;10.80;79.90;;;;;;5053948;28;20086;-48
2023/05/08 01:52:26;;;;;;;6.35;5.60;;;10.80;80.00;;;;;;5033114;28;20462;-47
2023/05/08 01:55:20;;;;;;;7.20;6.50;;;10.80;80.00;;;;;;5053711;28;20025;-48
2023/05/08 01:57:50;;;;;;;9.80;5.70;;;10.80;80.10;;;;;;5035984;28;20037;-46
2023/05/08 02:00:20;;;;;;;6.70;6.00;;;10.70;80.10;;;;;;5052542;28;20033;-47
2023/05/08 02:02:49;;;;;;;7.07;6.38;;;10.70;80.00;;;;;;5052668;28;20520;-49
2023/05/08 02:05:17;;;;;;;10.13;6.33;;;10.70;80.10;;;;;;5053515;28;20094;-46
2023/05/08 02:07:46;;;;;;;6.68;5.95;;;10.70;79.60;;;;;;5053209;28;20032;-47
2023/05/08 02:10:17;;;;;;;8.82;6.97;;;10.70;79.90;;;;;;5053414;28;20056;-49
2023/05/08 02:12:45;;;;;;;8.50;7.45;;;10.70;79.50;;;;;;5053586;28;20094;-47
2023/05/08 02:15:17;;;;;;;6.90;6.20;;;10.70;79.70;;;;;;5053345;28;20057;-47
2023/05/08 02:17:50;;;;;;;6.97;6.28;;;10.70;79.80;;;;;;5053309;28;20021;-46
2023/05/08 02:20:18;;;;;;;6.97;6.07;;;10.70;80.10;;;;;;5053258;28;20545;-47
2023/05/08 02:22:49;;;;;;;10.05;6.28;;;10.60;79.90;;;;;;5052061;28;20085;-49
2023/05/08 02:25:15;;;;;;;7.03;5.82;;;10.60;80.00;;;;;;5053278;28;20104;-47
2023/05/08 02:27:47;;;;;;;8.07;6.47;;;10.50;80.20;;;;;;5053108;28;20029;-47
2023/05/08 02:30:20;;;;;;;7.53;6.05;;;10.50;80.30;;;;;;5053321;28;20435;-47
2023/05/08 02:32:48;;;;;;;6.93;6.07;;;10.40;80.70;;;;;;5053013;28;20029;-46
2023/05/08 02:35:18;;;;;;;7.47;6.70;;;10.40;80.60;;;;;;5052902;28;20032;-47
2023/05/08 02:37:54;;;;;;;6.88;6.18;;;10.30;80.90;;;;;;5035670;28;20021;-46
2023/05/08 02:40:25;;;;;;;7.03;6.25;;;10.20;81.10;;;;;;5053642;28;20076;-46
2023/05/08 02:42:52;;;;;;;6.88;6.18;;;10.20;81.40;;;;;;5053061;28;20052;-46
2023/05/08 02:45:24;;;;;;;7.65;6.85;;;10.20;81.70;;;;;;5053211;28;20108;-46
2023/05/08 02:48:11;;;;;;;7.68;6.40;;;10.10;81.80;;;;;;5052943;28;20052;-47
2023/05/08 02:50:58;;;;;;;8.32;6.65;;;10.00;81.90;;;;;;5035207;28;20037;-47
2023/05/08 02:53:34;;;;;;;8.02;7.15;;;10.00;81.90;;;;;;5052834;28;20104;-46
2023/05/08 02:56:43;;;;;;;8.45;7.32;;;9.90;81.80;;;;;;5053068;28;20128;-46
2023/05/08 02:59:29;;;;;;;7.38;6.63;;;9.90;82.30;;;;;;5052913;28;20339;-49
2023/05/08 03:02:20;;;;;;;8.32;7.53;;;9.80;82.50;;;;;;5052861;28;20486;-47
2023/05/08 03:04:58;;;;;;;9.52;7.70;;;9.80;82.50;;;;;;5052805;28;20036;-46
2023/05/08 03:07:27;;;;;;;8.52;7.63;;;9.70;82.70;;;;;;5052579;28;20021;-47
2023/05/08 03:10:06;;;;;;;10.20;7.95;;;9.70;82.50;;;;;;5052718;28;20045;-46
2023/05/08 03:12:37;;;;;;;8.50;7.55;;;9.70;82.40;;;;;;5052716;28;20072;-46
2023/05/08 03:15:13;;;;;;;8.18;7.38;;;9.70;82.40;;;;;;5052684;28;20351;-49
2023/05/08 03:17:43;;;;;;;9.25;8.30;;;9.70;82.20;;;;;;5055188;28;20033;-46
2023/05/08 03:20:17;;;;;;;10.07;7.90;;;9.70;82.10;;;;;;5056947;28;20350;-47
2023/05/08 03:22:47;;;;;;;7.57;6.88;;;9.70;82.10;;;;;;5056365;28;20029;-47
2023/05/08 03:25:16;;;;;;;10.10;9.00;;;9.70;82.10;;;;;;5056638;28;20029;-47
2023/05/08 03:27:44;;;;;;;;;;;9.60;82.30;;;;;;5056868;28;20051;-47
2023/05/08 03:30:12;;;;;;;7.47;6.68;;;9.60;82.40;;;;;;5038882;28;20254;-46
2023/05/08 03:32:40;;;;;;;8.02;7.22;;;9.60;82.20;;;;;;5056071;28;20033;-46
2023/05/08 03:35:08;;;;;;;8.85;7.95;;;9.50;82.40;;;;;;5056254;28;20029;-46
2023/05/08 03:37:38;;;;;;;9.32;8.23;;;9.50;82.90;;;;;;5038985;28;20024;-48
2023/05/08 03:40:05;;;;;;;;;;;9.50;82.70;;;;;;5056915;28;20033;-47
2023/05/08 03:42:32;;;;;;;8.88;7.97;;;9.50;82.90;;;;;;5056330;28;19919;-48
2023/05/08 03:45:01;;;;;;;10.18;8.65;;;9.40;83.10;;;;;;5038512;28;20033;-46
2023/05/08 03:47:28;;;;;;;8.43;7.53;;;9.40;83.00;;;;;;5056016;28;20032;-46
2023/05/08 03:49:54;;;;;;;9.77;7.10;;;9.40;83.20;;;;;;5070048;28;20036;-46
2023/05/08 03:52:21;;;;;;;9.32;8.23;;;9.40;83.30;;;;;;5058264;28;20111;-48
2023/05/08 03:54:47;;;;;;;10.02;8.75;;;9.40;83.30;;;;;;5056324;28;20047;-46
2023/05/08 03:57:15;;;;;;;8.75;7.85;;;9.30;83.50;;;;;;5038188;28;20040;-47
2023/05/08 04:00:00;;;;;;;8.90;8.00;;;9.30;83.60;;;;;;5049525;28;20020;-47
2023/05/08 04:03:11;;;;;;;8.90;8.00;;;9.30;83.60;;;;;;5075994;28;20024;-46
2023/05/08 04:05:48;;;;;;;8.93;8.02;;;9.20;83.70;;;;;;5010439;28;20413;-50
2023/05/08 04:08:38;;;;;;;11.25;9.18;;;9.30;83.70;;;;;;5037504;28;20455;-49
2023/05/08 04:11:49;;;;;;;8.65;7.15;;;9.30;83.80;;;;;;5039968;28;20053;-48
2023/05/08 04:14:19;;;;;;;9.77;7.25;;;9.30;83.50;;;;;;5075325;28;20466;-48
2023/05/08 04:16:52;;;;;;;9.52;8.57;;;9.30;83.60;;;;;;5075437;28;20024;-46
2023/05/08 04:19:24;;;;;;;10.13;8.52;;;9.30;83.40;;;;;;5070065;28;20067;-48
2023/05/08 04:21:54;;;;;;;9.07;8.18;;;9.30;83.70;;;;;;5055006;28;20021;-48
2023/05/08 04:24:23;;;;;;;8.70;7.85;;;9.30;83.60;;;;;;5055310;28;20017;-46
2023/05/08 04:26:51;;;;;;;8.77;7.88;;;9.30;83.50;;;;;;5054179;28;20331;-47
2023/05/08 04:29:19;;;;;;;9.70;8.80;;;9.30;83.70;;;;;;5055100;28;20021;-46
2023/05/08 04:31:49;;;;;;;9.25;8.35;;;9.30;83.50;;;;;;5037777;28;20079;-47
2023/05/08 04:34:17;;;;;;;9.70;8.70;;;9.30;83.60;;;;;;5055034;28;20021;-47
2023/05/08 04:36:44;;;;;;;8.25;7.50;;;9.30;83.40;;;;;;5066254;28;20032;-46
2023/05/08 04:39:11;;;;;;;8.80;7.95;;;9.30;83.20;;;;;;5073224;28;20055;-47
2023/05/08 04:41:38;;;;;;;8.60;7.80;;;9.30;83.20;;;;;;5055042;28;20031;-46
2023/05/08 04:44:05;;;;;;;9.40;8.23;;;9.40;83.10;;;;;;5064884;28;20089;-45
2023/05/08 04:46:31;;;;;;;10.43;9.02;;;9.50;82.50;;;;;;5057311;28;20032;-46
2023/05/08 04:48:57;;;;;;;8.80;7.90;;;9.50;82.10;;;;;;5065206;28;20112;-48
2023/05/08 04:51:24;;;;;;;9.70;8.70;;;9.50;81.90;;;;;;5055085;28;20032;-49
2023/05/08 04:53:51;;;;;;;11.30;8.00;;;9.50;81.80;;;;;;5054756;28;20443;-47
2023/05/08 04:56:18;;;;;;;9.13;8.23;;;9.50;82.10;;;;;;5037162;28;20041;-46
2023/05/08 04:58:46;;;;;;;10.63;8.68;;;9.40;82.20;;;;;;5054708;28;20025;-48
2023/05/08 05:01:13;;;;;;;8.75;7.82;;;9.50;82.10;;;;;;5054628;28;20338;-46
2023/05/08 05:03:39;;;;;;;10.18;9.18;;;9.50;82.20;;;;;;5036788;28;20017;-48
2023/05/08 05:06:06;;;;;;;9.57;8.60;;;9.50;82.10;;;;;;5054181;28;20033;-48
2023/05/08 05:08:33;;;;;;;9.38;8.48;;;9.50;81.90;;;;;;5054145;28;20442;-46
2023/05/08 05:10:59;;;;;;;9.43;8.32;;;9.50;81.60;;;;;;5066609;28;20060;-47
2023/05/08 05:13:27;;;;;;;8.95;8.05;;;9.60;81.70;;;;;;5056740;28;20426;-50
2023/05/08 05:15:53;;;;;;;11.57;9.25;;;9.80;81.80;;;;;;5066418;28;20071;-52
2023/05/08 05:18:21;;;;;;;9.27;8.40;;;9.80;80.90;;;;;;5054125;28;20048;-48
2023/05/08 05:20:47;;;;;;;10.65;8.60;;;9.90;80.80;;;;;;5036279;28;20025;-50
2023/05/08 05:23:15;;;;;;;8.77;8.00;;;9.90;81.00;;;;;;5054048;28;20458;-46
2023/05/08 05:25:42;;;;;;;8.98;7.93;;;9.90;80.70;;;;;;5036578;28;20520;-47
2023/05/08 05:28:08;;;;;;;9.63;8.02;;;10.00;80.40;;;;;;5053727;28;20104;-47
2023/05/08 05:30:35;;;;;;;9.02;8.20;;;10.10;80.20;;;;;;5053561;28;20099;-48
2023/05/08 05:33:02;;;;;;;9.57;7.75;;;10.10;80.10;;;;;;5053756;28;20021;-47
2023/05/08 05:35:30;;;;;;;9.30;8.40;;;10.20;79.90;;;;;;5053696;28;20041;-50
2023/05/08 05:37:57;;;;;;;9.73;8.73;;;10.20;79.70;;;;;;5054094;28;20115;-47
2023/05/08 05:40:24;;;;;;;9.27;7.75;;;10.30;79.40;;;;;;5035630;28;20038;-50
2023/05/08 05:42:51;;;;;;;9.60;8.43;;;10.40;79.00;;;;;;5053546;28;20021;-47
2023/05/08 05:45:18;;;;;;;9.23;8.32;;;10.30;78.90;;;;;;5036315;28;20063;-46
2023/05/08 05:47:48;;;;;;;8.27;7.47;;;10.30;79.00;;;;;;5053777;28;20952;-48
2023/05/08 05:50:14;;;;;;;8.38;7.57;;;10.40;78.90;;;;;;5053541;28;20446;-49
2023/05/08 05:52:40;;;;;;;8.70;7.82;;;10.40;79.20;;;;;;5053870;28;20029;-46
2023/05/08 05:55:09;;;;;;;8.40;7.60;;;10.50;79.20;;;;;;5053552;28;20021;-46
2023/05/08 05:57:39;;;;;;;9.02;8.13;;;10.50;78.80;;;;;;5054087;28;20346;-46
2023/05/08 06:00:06;;;;;;;8.70;7.80;;;10.40;78.60;;;;;;5035612;28;20368;-48
2023/05/08 06:02:35;;;;;;;8.63;7.72;;;10.40;78.60;;;;;;5036290;28;20423;-46
2023/05/08 06:05:05;;;;;;;8.70;7.90;;;10.50;78.30;;;;;;5053663;28;20036;-47
2023/05/08 06:07:31;;;;;;;8.85;7.40;;;10.50;78.40;;;;;;5050143;28;20295;-48
2023/05/08 06:09:57;;;;;;;8.15;7.35;;;10.50;78.10;;;;;;5073181;28;20102;-46
2023/05/08 06:12:23;;;;;;;8.93;8.07;;;10.60;78.60;;;;;;5059638;28;20037;-46
2023/05/08 06:14:51;;;;;;;8.90;8.00;;;10.60;78.40;;;;;;5053000;28;20047;-47
2023/05/08 06:17:19;;;;;;;9.55;8.55;;;10.80;78.20;;;;;;5053164;28;20025;-47
2023/05/08 06:19:53;;;;;;;9.40;8.50;;;10.80;78.30;;;;;;5035910;28;20029;-48
2023/05/08 06:22:22;;;;;;;8.20;7.38;;;10.80;77.30;;;;;;5053104;28;20021;-47
2023/05/08 06:24:53;;;;;;;10.32;8.60;;;10.80;77.80;;;;;;5054181;28;20029;-46
2023/05/08 06:27:21;;;;;;;8.93;8.13;;;10.80;77.30;;;;;;5072885;28;20035;-46
2023/05/08 06:29:51;;;;;;;8.55;7.75;;;10.90;77.60;;;;;;5068291;28;20079;-47
2023/05/08 06:32:19;;;;;;;8.20;7.40;;;10.90;77.20;;;;;;5052934;28;20521;-46
2023/05/08 06:34:46;;;;;;;9.40;8.43;;;10.90;77.10;;;;;;5064799;28;20162;-47
2023/05/08 06:37:15;;;;;;;8.63;7.80;;;10.90;77.30;;;;;;5055431;28;20119;-46
2023/05/08 06:39:42;;;;;;;8.68;7.88;;;11.00;76.60;;;;;;5069281;28;20029;-46
2023/05/08 06:42:09;;;;;;;8.27;7.20;;;11.10;76.90;;;;;;5053199;28;20059;-46
2023/05/08 06:44:35;;;;;;;8.40;7.53;;;11.20;76.90;;;;;;5035153;28;20029;-46
2023/05/08 06:47:02;;;;;;;8.70;7.90;;;11.10;76.40;;;;;;5053003;28;20024;-46
2023/05/08 06:49:29;;;;;;;8.25;7.47;;;11.20;77.00;;;;;;5052538;28;20033;-46
2023/05/08 06:51:56;;;;;;;8.13;7.32;;;11.30;76.90;;;;;;5051832;28;20435;-46
2023/05/08 06:54:23;;;;;;;9.00;7.93;;;11.40;76.80;;;;;;5052546;28;20032;-50
2023/05/08 06:56:52;;;;;;;8.82;7.88;;;11.40;76.50;;;;;;5068028;28;20469;-45
2023/05/08 06:59:22;;;;;;;8.23;7.43;;;11.40;76.60;;;;;;5072617;28;20132;-48
2023/05/08 07:01:55;;;;;;;8.55;7.60;;;11.40;76.60;;;;;;5070150;28;20033;-46
2023/05/08 07:04:22;;;;;;;9.93;7.57;;;11.40;76.50;;;;;;5052610;28;20024;-47
2023/05/08 07:06:47;;;;;;;12.77;8.25;;;11.60;76.40;;;;;;5052816;28;20450;-46
2023/05/08 07:09:14;;;;;;;8.70;7.82;;;11.60;76.00;;;;;;5034878;28;20107;-47
2023/05/08 07:11:41;;;;;;;8.00;7.20;;;11.70;75.80;;;;;;5040596;28;20035;-47
2023/05/08 07:14:08;;;;;;;8.43;7.63;;;11.80;75.10;;;;;;5054635;28;20442;-47
2023/05/08 07:16:36;;;;;;;7.97;7.28;;;11.90;76.10;;;;;;5072727;28;20053;-46
2023/05/08 07:19:03;;;;;;;9.20;7.50;;;12.00;76.20;;;;;;5072439;28;20028;-47
2023/05/08 07:21:33;;;;;;;8.25;7.50;;;12.30;75.20;;;;;;5064900;28;20330;-47
2023/05/08 07:24:00;;;;;;;7.35;6.65;;;12.60;74.00;;;;;;5052766;28;20393;-47
2023/05/08 07:26:26;;;;;;;8.50;7.07;;;12.90;73.50;;;;;;5034806;28;20127;-46
2023/05/08 07:28:53;;;;;;;7.82;7.03;;;13.30;72.60;;;;;;5052590;28;20474;-47
2023/05/08 07:31:20;;;;;;;7.70;6.90;;;13.70;69.70;;;;;;5068454;28;20412;-46
2023/05/08 07:33:47;;;;;;;7.60;6.60;;;14.10;67.70;;;;;;5072560;28;20032;-46
2023/05/08 07:36:17;;;;;;;7.38;6.38;;;14.50;68.20;;;;;;5068492;28;20364;-49
2023/05/08 07:38:46;;;;;;;7.00;5.53;;;14.90;66.70;;;;;;5052705;28;20370;-52
2023/05/08 07:41:13;;;;;;;7.60;6.78;;;15.20;65.70;;;;;;5052253;28;20362;-47
2023/05/08 07:43:42;;;;;;;8.05;6.32;;;15.40;65.00;;;;;;5052164;28;20530;-53
2023/05/08 07:46:15;;;;;;;7.80;7.10;;;15.70;64.00;;;;;;5072086;28;20060;-47
2023/05/08 07:48:42;;;;;;;7.50;6.45;;;15.90;62.60;;;;;;5072324;28;20036;-47
2023/05/08 07:51:10;;;;;;;6.32;5.70;;;16.10;63.60;;;;;;5072085;28;20400;-47
2023/05/08 07:53:37;;;;;;;7.38;6.68;;;16.60;61.70;;;;;;5056862;28;20056;-47
2023/05/08 07:56:04;;;;;;;6.90;6.28;;;16.80;60.90;;;;;;5051943;28;20032;-48
2023/05/08 07:58:31;;;;;;;9.27;6.28;;;16.90;60.00;;;;;;5052110;28;20029;-47
2023/05/08 08:00:58;;;;;;;7.38;6.68;;;17.00;60.20;;;;;;5051935;28;20032;-47
2023/05/08 08:03:27;;;;;;;8.77;6.43;;;16.90;59.20;;;;;;5053845;28;20048;-48
2023/05/08 08:05:54;;;;;;;6.63;5.93;;;16.90;59.40;;;;;;5055676;28;20104;-48
2023/05/08 08:08:22;;;;;;;8.05;6.55;;;16.70;59.50;;;;;;5055987;28;20094;-46
2023/05/08 08:10:49;;;;;;;6.65;5.95;;;16.60;59.90;;;;;;5055507;28;20128;-47
2023/05/08 08:13:16;;;;;;;7.25;6.55;;;16.50;61.30;;;;;;5055860;28;20463;-47
2023/05/08 08:15:43;;;;;;;12.18;6.45;;;16.80;60.80;;;;;;5055617;28;20094;-48
2023/05/08 08:18:10;;;;;;;8.65;6.60;;;16.80;60.90;;;;;;5037673;28;20025;-47
2023/05/08 08:20:36;;;;;;;8.05;7.35;;;16.40;60.90;;;;;;5038092;28;20025;-47
2023/05/08 08:23:02;;;;;;;7.20;6.53;;;16.20;62.00;;;;;;5037794;28;20472;-47
2023/05/08 08:25:29;;;;;;;8.95;7.05;;;16.00;62.90;;;;;;5071934;28;20040;-47
2023/05/08 08:27:57;;;;;;;7.82;7.13;;;15.90;62.60;;;;;;5075461;28;20036;-49
2023/05/08 08:30:24;;;;;;;7.75;7.05;;;15.60;63.10;;;;;;5075297;28;20059;-47
2023/05/08 08:32:51;;;;;;;8.23;7.43;;;15.60;64.10;;;;;;5066182;28;20486;-47
2023/05/08 08:35:18;;;;;;;7.70;6.90;;;15.50;65.20;;;;;;5055176;28;20135;-48
2023/05/08 08:37:43;;;;;;;7.25;6.55;;;15.60;65.30;;;;;;5055532;28;20422;-47
2023/05/08 08:40:11;;;;;;;8.02;7.32;;;15.90;65.00;;;;;;5054795;28;20048;-48
2023/05/08 08:42:39;;;;;;;7.50;6.80;;;16.10;62.90;;;;;;5055130;28;20095;-50
2023/05/08 08:45:07;;;;;;;8.10;6.68;;;16.00;63.70;;;;;;5055081;28;20021;-49
2023/05/08 08:47:36;;;;;;;7.47;6.78;;;16.20;63.20;;;;;;5054729;28;20044;-47
2023/05/08 08:50:04;;;;;;;6.72;6.00;;;16.30;62.70;;;;;;5054918;28;20072;-48
2023/05/08 08:53:11;;;;;;;8.05;7.35;;;16.60;63.20;;;;;;5055121;28;20032;-47
2023/05/08 08:55:45;;;;;;;8.93;7.20;;;16.70;61.80;;;;;;5054714;28;20033;-47
2023/05/08 08:58:21;;;;;;;7.50;6.80;;;16.80;63.40;;;;;;5054735;28;20035;-47
2023/05/08 09:00:49;;;;;;;7.22;6.53;;;17.10;61.40;;;;;;5054600;28;20505;-47
2023/05/08 09:03:16;;;;;;;7.88;6.97;;;17.10;61.00;;;;;;5054406;28;20028;-48
2023/05/08 09:05:44;;;;;;;7.38;6.68;;;17.00;60.30;;;;;;5054684;28;20103;-47
2023/05/08 09:08:11;;;;;;;8.40;6.82;;;16.90;60.10;;;;;;5054491;28;20036;-48
2023/05/08 09:10:38;;;;;;;9.43;6.28;;;16.60;62.30;;;;;;5054346;28;20052;-47
2023/05/08 09:13:05;;;;;;;7.80;6.95;;;16.90;63.00;;;;;;5071628;28;20025;-47
2023/05/08 09:15:32;;;;;;;7.18;6.47;;;17.20;63.20;;;;;;5073466;28;20458;-47
2023/05/08 09:18:02;;;;;;;7.40;6.65;;;17.50;60.10;;;;;;5067386;28;20033;-47
2023/05/08 09:20:29;;;;;;;7.15;6.45;;;17.70;61.80;;;;;;5054298;28;20031;-47
2023/05/08 09:23:01;;;;;;;7.45;6.75;;;17.90;60.60;;;;;;5054416;28;20079;-48
2023/05/08 09:25:52;;;;;;;9.57;7.13;;;18.10;59.10;;;;;;5054862;28;20040;-47
2023/05/08 09:28:24;;;;;;;8.48;7.65;;;17.60;59.00;;;;;;5074483;28;20024;-47
2023/05/08 09:31:08;;;;;;;8.60;6.85;;;17.60;59.70;;;;;;5056592;28;20036;-47
2023/05/08 09:33:43;;;;;;;8.45;7.65;;;17.50;59.70;;;;;;5053239;28;20102;-47
2023/05/08 09:36:27;;;;;;;8.40;7.28;;;17.40;60.70;;;;;;5054072;28;20032;-47
2023/05/08 09:38:53;;;;;;;9.55;7.55;;;17.10;61.00;;;;;;5054303;28;20386;-47
2023/05/08 09:41:22;;;;;;;8.13;7.00;;;17.40;60.70;;;;;;5053965;28;20716;-47
2023/05/08 09:44:09;;;;;;;8.53;7.60;;;17.30;62.20;;;;;;5054246;28;20032;-47
2023/05/08 09:46:36;;;;;;;8.15;7.45;;;17.30;60.90;;;;;;5053799;28;20049;-47
2023/05/08 09:49:03;;;;;;;7.90;6.85;;;17.40;61.60;;;;;;5036375;28;20029;-47
2023/05/08 09:51:30;;;;;;;7.82;6.95;;;17.50;61.80;;;;;;5061177;28;20138;-48
2023/05/08 09:53:58;;;;;;;10.20;7.70;;;17.60;61.80;;;;;;5073915;28;20361;-47
2023/05/08 09:56:34;;;;;;;6.97;6.38;;;17.60;60.80;;;;;;5073533;28;20028;-47
2023/05/08 09:59:03;;;;;;;8.75;7.85;;;17.90;62.20;;;;;;5070882;28;20057;-47
2023/05/08 10:01:38;;;;;;;7.97;7.20;;;17.80;60.90;;;;;;5053720;28;20059;-47
2023/05/08 10:04:05;;;;;;;8.70;7.40;;;17.70;60.60;;;;;;5053476;28;20035;-48
2023/05/08 10:06:35;;;;;;;9.02;7.60;;;18.00;59.90;;;;;;5053567;28;20063;-47
2023/05/08 10:09:14;;;;;;;10.10;7.82;;;18.00;60.20;;;;;;5036476;28;20108;-48
2023/05/08 10:12:00;;;;;;;7.88;6.95;;;18.10;62.00;;;;;;5053471;28;20033;-47
2023/05/08 10:14:27;;;;;;;8.70;7.72;;;18.20;60.10;;;;;;5053670;28;20029;-48
2023/05/08 10:16:53;;;;;;;9.00;7.82;;;18.40;59.40;;;;;;5053251;28;20108;-47
2023/05/08 10:19:21;;;;;;;7.68;6.88;;;18.30;59.30;;;;;;5053455;28;20096;-47
2023/05/08 10:21:51;;;;;;;8.68;7.85;;;18.20;61.00;;;;;;5052987;28;20039;-48
2023/05/08 10:24:16;;;;;;;7.22;6.53;;;18.40;58.90;;;;;;5053575;28;20017;-48
2023/05/08 10:26:54;;;;;;;11.20;6.85;;;18.40;60.60;;;;;;5053009;28;20367;-49
2023/05/08 10:29:54;;;;;;;8.60;7.80;;;18.40;59.20;;;;;;5036743;28;20450;-47
2023/05/08 10:32:22;;;;;;;8.95;8.02;;;18.30;60.90;;;;;;5032323;28;20068;-48
2023/05/08 10:34:58;;;;;;;9.85;7.40;;;18.20;62.10;;;;;;5052667;28;20028;-48
2023/05/08 10:37:28;;;;;;;8.80;8.00;;;18.30;61.20;;;;;;5035244;28;20098;-47
2023/05/08 10:39:56;;;;;;;8.70;7.80;;;18.40;60.00;;;;;;5053193;28;20025;-49
2023/05/08 10:42:24;;;;;;;8.90;8.10;;;18.40;59.90;;;;;;5052835;28;20569;-48
2023/05/08 10:44:52;;;;;;;8.68;7.60;;;18.40;60.40;;;;;;5053346;28;20041;-47
2023/05/08 10:47:43;;;;;;;12.93;7.65;;;18.60;61.30;;;;;;5052858;28;20052;-47
2023/05/08 10:50:34;;;;;;;8.38;7.57;;;18.90;62.10;;;;;;5052901;28;20039;-47
2023/05/08 10:53:28;;;;;;;8.13;7.32;;;18.80;59.80;;;;;;5052836;28;20025;-47
2023/05/08 10:55:55;;;;;;;9.35;8.45;;;18.80;60.00;;;;;;5070252;28;20036;-47
2023/05/08 10:58:36;;;;;;;9.15;8.32;;;18.90;60.40;;;;;;5072990;28;20025;-47
2023/05/08 11:01:07;;;;;;;9.45;8.52;;;18.80;58.50;;;;;;5072812;28;20169;-49
2023/05/08 11:03:45;;;;;;;10.02;9.13;;;18.60;59.70;;;;;;5055166;28;20036;-47
2023/05/08 11:06:13;;;;;;;9.65;8.52;;;18.50;58.90;;;;;;5052690;28;20032;-47
2023/05/08 11:08:53;;;;;;;8.57;7.78;;;18.50;60.70;;;;;;5052931;28;20078;-47
2023/05/08 11:11:38;;;;;;;8.70;7.88;;;18.80;60.50;;;;;;5053118;28;20033;-47
2023/05/08 11:14:23;;;;;;;9.05;8.25;;;18.90;61.10;;;;;;5052625;28;20029;-48
2023/05/08 11:17:00;;;;;;;7.75;6.88;;;18.80;60.20;;;;;;5035171;28;20033;-49
2023/05/08 11:19:31;;;;;;;9.13;8.23;;;19.10;61.40;;;;;;5052709;28;20036;-49
2023/05/08 11:22:15;;;;;;;9.35;8.45;;;19.20;59.30;;;;;;5052405;28;20029;-48
2023/05/08 11:25:04;;;;;;;8.93;7.95;;;18.90;59.00;;;;;;5052641;28;20096;-49
2023/05/08 11:27:36;;;;;;;10.10;9.20;;;18.80;60.60;;;;;;5052484;28;20029;-47
2023/05/08 11:30:21;;;;;;;9.82;8.93;;;18.60;60.00;;;;;;5034899;28;20025;-48
2023/05/08 11:33:08;;;;;;;11.35;9.30;;;18.40;60.60;;;;;;5067018;28;20023;-47
2023/05/08 11:35:53;;;;;;;11.38;8.93;;;18.30;61.70;;;;;;5066363;28;20122;-47
2023/05/08 11:38:32;;;;;;;9.75;8.80;;;18.40;62.00;;;;;;5054367;28;20409;-48
2023/05/08 11:41:09;;;;;;;10.23;9.23;;;18.40;62.00;;;;;;5056284;28;20029;-48
2023/05/08 11:44:13;;;;;;;10.50;9.52;;;18.60;61.60;;;;;;5056174;28;20321;-48
2023/05/08 11:46:54;;;;;;;10.40;9.30;;;18.70;60.70;;;;;;5057314;28;20508;-47
2023/05/08 11:49:23;;;;;;;10.60;9.10;;;18.70;60.00;;;;;;5076085;28;20114;-48
2023/05/08 11:51:58;;;;;;;9.48;8.40;;;18.60;59.80;;;;;;5076314;28;20079;-47
2023/05/08 11:54:28;;;;;;;9.90;9.00;;;18.80;61.10;;;;;;5064705;28;20115;-47
2023/05/08 11:56:56;;;;;;;9.98;8.07;;;18.90;61.10;;;;;;5056119;28;20107;-47
2023/05/08 11:59:23;;;;;;;9.32;8.32;;;19.30;61.80;;;;;;5055867;28;20723;-49
2023/05/08 12:01:50;;;;;;;10.43;9.30;;;19.70;60.00;;;;;;5038622;28;20036;-50
2023/05/08 12:04:17;;;;;;;10.48;9.57;;;19.50;58.40;;;;;;5055830;28;20036;-47
2023/05/08 12:06:47;;;;;;;9.50;8.60;;;19.40;58.90;;;;;;5055723;28;20031;-50
2023/05/08 12:09:17;;;;;;;10.45;9.40;;;19.40;59.60;;;;;;5055667;28;20052;-50
2023/05/08 12:11:44;;;;;;;10.95;9.85;;;19.40;59.30;;;;;;5055764;28;20365;-47
2023/05/08 12:14:17;;;;;;;10.73;9.73;;;19.30;59.60;;;;;;5055362;28;20039;-51
2023/05/08 12:16:44;;;;;;;10.70;8.57;;;19.10;60.00;;;;;;5055551;28;20037;-47
2023/05/08 12:19:12;;;;;;;9.98;9.07;;;19.20;61.10;;;;;;5055611;28;20339;-47
2023/05/08 12:21:48;;;;;;;11.00;10.00;;;19.40;60.90;;;;;;5037851;28;20031;-50
2023/05/08 12:24:21;;;;;;;12.18;9.73;;;19.40;59.90;;;;;;5055444;28;20036;-47
2023/05/08 12:26:53;;;;;;;10.20;9.30;;;19.50;60.80;;;;;;5055575;28;20024;-47
2023/05/08 12:29:20;;;;;;;10.15;9.23;;;19.60;59.40;;;;;;5055313;28;20442;-47
2023/05/08 12:31:47;;;;;;;10.48;9.48;;;19.60;59.80;;;;;;5055382;28;20075;-49
2023/05/08 12:34:17;;;;;;;11.70;10.13;;;19.90;58.50;;;;;;5055265;28;20044;-50
2023/05/08 12:36:44;;;;;;;14.27;10.43;;;19.90;59.10;;;;;;5055462;28;20435;-48
2023/05/08 12:39:20;;;;;;;10.75;9.75;;;20.00;59.20;;;;;;5055218;28;20029;-47
2023/05/08 12:42:04;;;;;;;11.40;10.30;;;20.40;59.70;;;;;;5075397;28;20449;-48
2023/05/08 12:44:29;;;;;;;10.15;9.18;;;20.80;58.30;;;;;;5074939;28;20028;-48
2023/05/08 12:46:57;;;;;;;11.18;9.48;;;21.10;58.10;;;;;;5061365;28;20100;-48
2023/05/08 12:49:27;;;;;;;9.95;8.95;;;21.20;56.80;;;;;;5055077;28;20542;-49
2023/05/08 12:52:06;;;;;;;10.00;8.98;;;21.10;57.10;;;;;;5055037;28;20025;-48
2023/05/08 12:54:44;;;;;;;11.68;10.57;;;20.90;57.10;;;;;;5055361;28;20099;-49
2023/05/08 12:57:16;;;;;;;11.43;10.23;;;20.50;56.30;;;;;;5054864;28;20068;-48
2023/05/08 12:59:44;;;;;;;10.45;8.80;;;19.90;59.10;;;;;;5056836;28;20413;-47
2023/05/08 13:02:29;;;;;;;10.05;9.02;;;19.90;59.90;;;;;;5057226;28;20056;-48
2023/05/08 13:04:56;;;;;;;12.50;10.45;;;19.90;61.40;;;;;;5074861;28;20024;-48
2023/05/08 13:07:23;;;;;;;10.77;9.73;;;20.00;60.20;;;;;;5055925;28;20489;-51
2023/05/08 13:09:56;;;;;;;10.57;9.57;;;20.00;60.10;;;;;;5074434;28;20161;-47
2023/05/08 13:12:23;;;;;;;10.88;9.77;;;20.00;59.40;;;;;;5066800;28;20047;-48